Latest Weather Observations for West Wyalong

IDN60801

Issued at 9:33 am EDT Monday 2 February 2015 (issued every 30 minutes, with the page automatically refreshed every 10 minutes)

About weather observations | Map of weather stations | Latest weather observations for NSW | Other Formats
Station Details ID: 050017 Name: WEST WYALONG AIRPORT AWS Lat: -33.94 Lon: 147.20 Height: 257.0 m
Data from the previous 72 hours. | See also: Recent months for locations in New South Wales
Date/Time
EDT
Temp
°C
App
Temp
°C
Dew
Point
Rel
Hum
%
Delta-T
°C
Wind Press
QNH
hPa
Press
MSL
hPa
Rain
since 9 am
mm
Dir
 
Spd
km/h
Gust
km/h
Spd
kts
Gust
kts
02/09:30am 22.2 19.1 12.2 53 5.7 E 20 28 11 15 1014.8 1013.4 0.0
02/09:00am 20.9 17.4 12.1 57 5.0 E 22 30 12 16 1014.6 1013.2 0.0
02/08:30am 19.6 15.6 11.9 61 4.3 ESE 24 30 13 16 1014.4 1013.0 0.0
02/08:00am 18.4 14.8 11.9 66 3.6 ESE 22 28 12 15 1013.8 1012.4 0.0
02/07:30am 17.3 14.6 11.8 70 3.0 ESE 17 22 9 12 1013.3 1011.9 0.0
02/07:00am 16.3 14.2 11.0 71 2.9 ESE 13 19 7 10 1012.7 1011.3 0.0
02/06:30am 16.0 13.9 11.0 72 2.7 ESE 13 17 7 9 1012.1 1010.7 0.0
02/06:00am 16.0 14.6 11.0 72 2.7 E 9 13 5 7 1011.6 1010.2 0.0
02/05:30am 16.3 14.2 11.0 71 2.9 ESE 13 19 7 10 1011.2 1009.8 0.0
02/05:00am 16.5 14.4 11.0 70 3.0 ESE 13 19 7 10 1010.8 1009.4 0.0
02/04:30am 16.8 14.3 11.1 69 3.1 ESE 15 19 8 10 1010.7 1009.3 0.0
02/04:00am 17.2 14.4 11.2 68 3.3 ESE 17 22 9 12 1010.4 1009.0 0.0
02/03:30am 17.1 14.9 10.7 66 3.5 ESE 13 17 7 9 1010.5 1009.1 0.0
02/03:00am 17.7 14.7 10.6 63 3.9 ESE 17 20 9 11 1010.4 1009.0 0.0
02/02:30am 18.0 15.5 10.9 63 3.9 ESE 15 22 8 12 1010.3 1008.9 0.0
02/02:00am 17.9 15.3 10.8 63 3.9 ESE 15 17 8 9 1010.6 1009.2 0.0
02/01:30am 18.0 16.1 10.4 61 4.1 SE 11 13 6 7 1010.6 1009.2 0.0
02/01:00am 18.3 16.2 9.9 58 4.5 SE 11 13 6 7 1010.8 1009.4 0.0
02/12:30am 18.6 16.6 8.8 53 5.2 SSE 9 13 5 7 1010.9 1009.5 0.0
02/12:00am 18.0 14.9 7.1 49 5.5 SSE 13 26 7 14 1011.0 1009.6 0.0
 
Date/Time
EDT
Temp
°C
App
Temp
°C
Dew
Point
Rel
Hum
%
Delta-T
°C
Wind Press
QNH
hPa
Press
MSL
hPa
Rain
since 9 am
mm
Dir
 
Spd
km/h
Gust
km/h
Spd
kts
Gust
kts
01/11:30pm 17.1 16.1 8.8 58 4.3 W 4 6 2 3 1010.3 1008.9 0.0
01/11:00pm 17.8 15.6 5.1 43 6.2 W 6 7 3 4 1010.2 1008.8 0.0
01/10:30pm 17.9 15.7 6.4 47 5.8 W 7 7 4 4 1010.1 1008.7 0.0
01/10:00pm 18.9 16.6 5.0 40 6.8 WSW 6 6 3 3 1010.0 1008.6 0.0
01/09:30pm 20.5 18.5 6.1 39 7.3 WSW 6 7 3 4 1009.9 1008.5 0.0
01/09:00pm 22.3 19.0 4.8 32 8.8 WSW 11 11 6 6 1009.7 1008.3 0.0
01/08:30pm 23.6 20.4 5.0 30 9.4 WSW 11 13 6 7 1009.4 1008.0 0.0
01/08:00pm 25.6 21.6 4.7 26 10.7 WSW 15 19 8 10 1009.1 1007.6 0.0
01/07:30pm 26.7 23.1 5.1 25 11.2 WSW 13 19 7 10 1008.7 1007.3 0.0
01/07:00pm 27.2 23.0 5.5 25 11.4 SW 17 22 9 12 1008.4 1007.0 0.0
01/06:30pm 27.8 23.9 5.4 24 11.7 W 15 20 8 11 1008.2 1006.8 0.0
01/06:00pm 27.9 23.7 5.5 24 11.8 W 17 24 9 13 1008.2 1006.8 0.0
01/05:30pm 28.0 24.3 6.2 25 11.6 WSW 15 28 8 15 1008.0 1006.6 0.0
01/05:00pm 28.6 24.9 7.8 27 11.4 SSW 17 28 9 15 1008.1 1006.7 0.0
01/04:30pm 28.2 24.1 8.0 28 11.1 W 19 35 10 19 1008.2 1006.8 0.0
01/04:00pm 28.0 24.1 7.3 27 11.2 WSW 17 28 9 15 1008.3 1006.9 0.0
01/03:30pm 28.3 24.1 8.1 28 11.1 SW 20 30 11 16 1008.6 1007.2 0.0
01/03:00pm 27.3 23.3 8.2 30 10.5 SW 19 30 10 16 1008.7 1007.3 0.0
01/02:30pm 27.0 23.3 8.0 30 10.3 WSW 17 28 9 15 1009.1 1007.6 0.0
01/02:00pm 26.4 21.5 6.9 29 10.4 WSW 22 33 12 18 1009.4 1008.0 0.0
01/01:30pm 25.9 21.5 7.5 31 9.9 SW 20 28 11 15 1009.8 1008.4 0.0
01/01:00pm 24.9 19.3 5.2 28 10.1 SW 24 32 13 17 1010.2 1008.8 0.0
01/12:30pm 25.4 20.5 7.1 31 9.7 WSW 22 30 12 16 1010.4 1009.0 0.0
01/12:00pm 24.7 20.2 6.9 32 9.4 WSW 20 30 11 16 1010.5 1009.1 0.0
01/11:30am 24.4 20.3 8.8 37 8.5 WSW 20 28 11 15 1010.6 1009.2 0.0
01/11:00am 23.0 19.3 10.1 44 7.1 WSW 20 28 11 15 1010.7 1009.3 0.0
01/10:30am 22.6 19.6 10.7 47 6.6 SW 17 24 9 13 1010.6 1009.1 0.0
01/10:00am 21.4 18.9 10.9 51 5.9 SW 15 20 8 11 1010.4 1008.9 0.0
01/09:30am 20.3 18.2 11.0 55 5.2 WSW 13 19 7 10 1010.3 1008.8 0.0
01/09:00am 19.1 16.2 10.9 59 4.5 SW 17 20 9 11 1010.1 1008.6 0.0
01/08:30am 17.9 15.6 10.3 61 4.1 SW 13 19 7 10 1010.0 1008.5 0.0
01/08:00am 16.5 13.3 9.9 65 3.5 SW 17 20 9 11 1009.8 1008.3 0.0
01/07:30am 16.0 14.3 9.7 66 3.3 SW 9 13 5 7 1009.5 1008.0 0.0
01/07:00am 15.1 12.7 8.8 66 3.3 WSW 11 17 6 9 1009.3 1007.7 0.0
01/06:30am 14.8 12.2 9.2 69 2.9 SW 13 15 7 8 1009.2 1007.6 0.0
01/06:00am 14.7 12.4 9.1 69 2.9 SW 11 15 6 8 1008.9 1007.3 0.0
01/05:30am 14.7 12.4 8.9 68 3.0 SW 11 13 6 7 1008.6 1007.1 0.0
01/05:00am 15.3 13.3 8.8 65 3.4 WSW 9 13 5 7 1008.6 1007.1 0.0
01/04:30am 14.9 12.8 8.4 65 3.3 SW 9 9 5 5 1008.5 1007.0 0.0
01/04:00am 15.1 13.3 8.1 63 3.6 WSW 7 9 4 5 1008.5 1007.0 0.0
01/03:30am 16.7 15.0 8.4 58 4.3 SSW 7 9 4 5 1008.5 1007.0 0.0
01/03:00am 17.0 15.3 8.2 56 4.5 SW 7 9 4 5 1008.7 1007.2 0.0
01/02:30am 17.4 15.1 7.5 52 5.0 SW 9 11 5 6 1008.7 1007.2 0.0
01/02:00am 18.0 15.2 7.1 49 5.5 SW 11 15 6 8 1009.0 1007.4 0.0
01/01:30am 18.0 15.6 7.1 49 5.5 WSW 9 11 5 6 1009.0 1007.4 0.0
01/01:00am 18.0 15.6 7.1 49 5.5 SW 9 11 5 6 1009.0 1007.4 0.0
01/12:30am 18.6 16.3 7.4 48 5.7 WSW 9 11 5 6 1009.1 1007.5 0.0
01/12:00am 18.5 16.3 7.9 50 5.5 WSW 9 11 5 6 1009.2 1007.6 0.0
 
Date/Time
EDT
Temp
°C
App
Temp
°C
Dew
Point
Rel
Hum
%
Delta-T
°C
Wind Press
QNH
hPa
Press
MSL
hPa
Rain
since 9 am
mm
Dir
 
Spd
km/h
Gust
km/h
Spd
kts
Gust
kts
31/11:30pm 18.8 16.2 7.9 49 5.7 WSW 11 11 6 6 1009.3 1007.7 0.0
31/11:00pm 19.6 17.4 8.0 47 6.1 WSW 9 11 5 6 1009.4 1007.9 0.0
31/10:30pm 19.6 17.4 8.0 47 6.1 WSW 9 11 5 6 1009.3 1007.7 0.0
31/10:00pm 19.9 17.8 8.3 47 6.1 WSW 9 9 5 5 1009.1 1007.5 0.0
31/09:30pm 21.6 19.3 7.4 40 7.4 WSW 9 11 5 6 1009.0 1007.4 0.0
31/09:00pm 22.9 20.0 6.6 35 8.5 WSW 11 15 6 8 1008.9 1007.3 0.0
31/08:30pm 23.8 20.1 6.1 32 9.2 SW 15 19 8 10 1008.6 1007.1 0.0
31/08:00pm 25.1 20.6 6.3 30 9.9 SW 19 24 10 13 1008.3 1006.8 0.0
31/07:30pm 26.3 21.8 6.3 28 10.5 SW 19 28 10 15 1008.0 1006.5 0.0
31/07:00pm 26.6 22.0 6.6 28 10.6 SW 20 32 11 17 1007.7 1006.2 0.0
31/06:30pm 27.1 22.6 7.0 28 10.8 SW 20 26 11 14 1007.4 1005.9 0.0
31/06:00pm 27.2 22.8 6.6 27 11.0 SW 19 30 10 16 1007.3 1005.8 0.0
31/05:30pm 27.4 23.0 7.3 28 10.8 SW 20 30 11 16 1007.5 1006.0 0.0
31/05:00pm 27.2 22.0 7.1 28 10.8 WSW 24 35 13 19 1007.8 1006.3 0.0
31/04:30pm 27.0 21.7 6.9 28 10.7 WSW 24 35 13 19 1008.0 1006.5 0.0
31/04:00pm 26.7 21.0 6.7 28 10.7 WSW 26 39 14 21 1008.2 1006.7 0.0
31/03:30pm 26.6 21.6 6.6 28 10.6 SW 22 37 12 20 1008.3 1006.8 0.0
31/03:00pm 26.2 21.9 6.8 29 10.3 SW 19 32 10 17 1008.3 1006.8 0.0
31/02:30pm 26.4 21.9 6.9 29 10.4 WSW 20 30 11 16 1008.5 1007.0 0.0
31/02:00pm 25.0 20.4 6.7 31 9.7 SW 20 35 11 19 1008.7 1007.2 0.0
31/01:30pm 24.5 19.7 5.8 30 9.7 WSW 20 37 11 20 1009.1 1007.5 0.0
31/01:00pm 24.4 19.3 6.2 31 9.5 WSW 22 33 12 18 1009.3 1007.7 0.0
31/12:30pm 24.1 20.0 6.4 32 9.2 SW 17 30 9 16 1009.3 1007.7 0.0
31/12:00pm 22.7 19.8 6.5 35 8.4 SW 11 22 6 12 1009.5 1008.0 0.0
31/11:30am 22.8 18.9 7.0 36 8.3 SW 17 24 9 13 1009.8 1008.3 0.0
31/11:00am 21.8 17.5 6.9 38 7.7 SW 19 28 10 15 1010.1 1008.6 0.0
31/10:30am 21.3 17.8 7.2 40 7.3 WSW 15 20 8 11 1010.1 1008.6 0.0
31/10:00am 20.9 18.2 7.5 42 7.0 SW 11 22 6 12 1010.1 1008.6 0.0
31/09:30am 20.1 17.2 8.1 46 6.3 SSW 13 17 7 9 1010.0 1008.5 0.0
31/09:00am 19.0 16.9 8.4 50 5.6 SSW 9 17 5 9 1010.1 1008.6 0.0
31/08:30am 17.5 14.6 8.1 54 4.9 SSW 13 19 7 10 1010.0 1008.5 0.0
31/08:00am 16.6 14.2 8.6 59 4.2 SSW 11 15 6 8 1009.8 1008.3 0.0
31/07:30am 14.9 12.7 7.9 63 3.5 WSW 9 13 5 7 1009.3 1007.7 0.0
31/07:00am 13.0 10.8 7.7 70 2.6 SW 9 13 5 7 1009.1 1007.5 0.0
31/06:30am 12.8 10.5 7.3 69 2.7 WSW 9 11 5 6 1008.9 1007.3 0.0
31/06:00am 12.7 10.3 7.2 69 2.7 WSW 9 11 5 6 1008.6 1007.1 0.0
31/05:30am 12.9 10.5 7.1 68 2.8 SW 9 11 5 6 1008.4 1006.9 0.0
31/05:00am 13.1 10.3 6.9 66 3.0 SW 11 11 6 6 1008.3 1006.8 0.0
31/04:30am 13.4 10.6 7.0 65 3.1 SW 11 13 6 7 1008.3 1006.8 0.0
31/04:00am 13.7 11.0 7.2 65 3.2 SW 11 11 6 6 1008.2 1006.7 0.0
31/03:30am 13.2 10.5 7.4 68 2.9 SW 11 13 6 7 1008.4 1006.9 0.0
31/03:00am 13.2 10.5 7.4 68 2.9 SW 11 13 6 7 1008.4 1006.9 0.0
31/02:30am 14.5 12.1 7.1 61 3.7 WSW 9 9 5 5 1008.6 1007.1 0.0
31/02:00am 14.7 12.0 7.3 61 3.7 WSW 11 11 6 6 1008.9 1007.3 0.0
31/01:30am 15.3 12.9 6.8 57 4.2 WSW 9 11 5 6 1009.1 1007.5 0.0
31/01:00am 16.0 12.8 6.7 54 4.6 W 13 15 7 8 1009.3 1007.7 0.0
31/12:30am 15.5 13.3 6.2 54 4.6 WSW 7 9 4 5 1009.3 1007.7 0.0
31/12:00am 15.8 13.5 5.7 51 4.9 W 7 9 4 5 1009.2 1007.6 0.0
 
Date/Time
EDT
Temp
°C
App
Temp
°C
Dew
Point
Rel
Hum
%
Delta-T
°C
Wind Press
QNH
hPa
Press
MSL
hPa
Rain
since 9 am
mm
Dir
 
Spd
km/h
Gust
km/h
Spd
kts
Gust
kts
30/11:30pm 17.0 14.4 5.9 48 5.5 SSW 9 13 5 7 1009.3 1007.7 0.0
30/11:00pm 17.9 14.8 5.5 44 6.1 SSW 11 13 6 7 1009.3 1007.7 0.0
30/10:30pm 18.0 15.1 4.9 42 6.4 SW 9 11 5 6 1009.3 1007.7 0.0
30/10:00pm 18.3 15.0 4.8 41 6.6 SW 11 13 6 7 1009.3 1007.7 0.0
30/09:30pm 19.2 15.8 3.8 36 7.4 SW 11 13 6 7 1009.2 1007.6 0.0
30/09:00pm 20.5 16.5 2.8 31 8.4 SSW 13 17 7 9 1009.0 1007.4 0.0
30/08:30pm 21.7 16.9 2.4 28 9.2 SSW 17 22 9 12 1008.6 1007.1 0.0
30/08:00pm 22.7 17.6 3.3 28 9.5 SSW 19 28 10 15 1008.4 1006.9 0.0
30/07:30pm 23.9 18.7 3.8 27 10.0 SSW 20 30 11 16 1008.2 1006.7 0.0
30/07:00pm 24.6 18.6 3.3 25 10.5 SW 24 32 13 17 1008.0 1006.5 0.0
30/06:30pm 25.2 19.1 2.6 23 11.1 SW 24 39 13 21 1007.9 1006.4 0.0
30/06:00pm 25.3 19.6 2.7 23 11.1 SSW 22 35 12 19 1007.9 1006.4 0.0
30/05:30pm 25.5 20.1 2.2 22 11.3 SW 20 30 11 16 1007.9 1006.4 0.0
30/05:00pm 25.3 19.1 2.1 22 11.3 SSW 24 37 13 20 1008.2 1006.7 0.0
30/04:30pm 25.9 20.4 3.8 24 11.1 SSW 22 32 12 17 1008.5 1007.0 0.0
30/04:00pm 25.2 18.8 3.2 24 10.9 SSW 26 39 14 21 1008.7 1007.2 0.0
30/03:30pm 25.4 19.2 2.2 22 11.3 SSW 24 33 13 18 1009.1 1007.5 0.0
30/03:00pm 25.0 18.6 3.0 24 10.9 SSW 26 35 14 19 1009.5 1008.0 0.0
30/02:30pm 24.8 19.2 3.5 25 10.6 SSW 22 39 12 21 1009.8 1008.3 0.0
30/02:00pm 24.2 19.2 4.6 28 9.9 SW 20 44 11 24 1010.2 1008.7 0.0
30/01:30pm 23.4 17.7 2.8 26 10.0 SW 22 35 12 19 1010.5 1009.0 0.0
30/01:00pm 23.0 18.1 4.0 29 9.4 WSW 19 32 10 17 1011.0 1009.5 0.0
30/12:30pm 22.1 18.0 4.6 32 8.7 SW 15 26 8 14 1011.3 1009.8 0.0
30/12:00pm 22.0 18.1 5.4 34 8.4 SSW 15 22 8 12 1011.6 1010.1 0.0
30/11:30am 20.6 16.3 5.4 37 7.6 SSW 17 22 9 12 1011.8 1010.3 0.0
30/11:00am 20.4 16.8 6.7 41 7.0 SSW 15 20 8 11 1012.1 1010.6 0.0
30/10:30am 19.2 17.2 7.0 45 6.2 S 7 15 4 8 1012.3 1010.8 0.0
30/10:00am 18.5 15.6 6.4 45 6.1 SSE 11 17 6 9 1012.5 1011.0 0.0

Other Formats:

Comma delimited format used in spreadsheet applications
http://www.bom.gov.au/fwo/IDN60801/IDN60801.95709.axf

JavaScript Object Notation format (JSON) in row-major order
http://www.bom.gov.au/fwo/IDN60801/IDN60801.95709.json